KPOE/POE METAR and TAF weather

Enter ICAO airport designator
Station Type Date Time Source
KPOE METAR 2019/10/14 05:58 UTC NOAA

KPOE 140558Z AUTO 10003KT 10SM BKN065 OVC080 19/10 A3001 RMK AO2 SLP162 T01940104 10208 20181 402400104 50000


Station Type Date Time Source
KPOE Decoded METAR 2019/10/14 05:58 UTC NOAA

Fort Polk, Polk AAF Ft Polk, LA, United States (KPOE) 31-03N 093-11-38W
Oct 14, 2019 - 01:58 AM EDT / 2019.10.14 0558 UTC
Wind: from the E (100 degrees) at 3 MPH (3 KT):0
Visibility: 10 mile(s):0
Sky conditions: overcast
Temperature: 66.9 F (19.4 C)
Dew Point: 50.7 F (10.4 C)
Relative Humidity: 55%
Pressure (altimeter): 30.01 in. Hg (1016 hPa)
Pressure tendency: 0.00 inches (0.0 hPa) higher than three hours ago
ob: KPOE 140558Z AUTO 10003KT 10SM BKN065 OVC080 19/10 A3001 RMK AO2 SLP162 T01940104 10208 20181 402400104 50000
cycle: 6

Station Type Date Time Source
KPOE TAF 2019/10/14 00:25 UTC NOAA

TAF KPOE 140000Z 1400/1506 08006KT 9999 BKN130 QNH2997INS
BECMG 1415/1416 08010KT 9000 -SHRA OVC008 QNH2999INS
TEMPO 1423/1504 VRB10G20KT 8000 -TSRA BKN009CB OVC030
BECMG 1504/1505 VRB06KT 9999 NSW BKN020 QNH2993INS TX23/1421Z TN15/1412Z

Example: see airport list